Time;durP1;ratioP1;P1;durP2;ratioP2;P2;SDS_P1;SDS_P2;PMS_P1;PMS_P2;Temp;Humidity;BMP_temperature;BMP_pressure;BME280_temperature;BME280_humidity;BME280_pressure;Samples;Min_cycle;Max_cycle;Signal;HPM_P1;HPM_P2
2023/09/03 00:00:42;;;;;;;12.70;10.13;;;15.00;99.90;;;;;;5155318;27;20038;-73
2023/09/03 00:03:08;;;;;;;11.57;10.47;;;14.90;99.90;;;;;;5136462;27;20042;-73
2023/09/03 00:05:34;;;;;;;11.40;8.83;;;14.90;99.90;;;;;;5155258;27;20053;-73
2023/09/03 00:08:00;;;;;;;10.83;9.83;;;14.80;99.90;;;;;;5136635;27;20359;-73
2023/09/03 00:10:25;;;;;;;10.20;9.20;;;14.80;99.90;;;;;;5155075;27;20200;-73
2023/09/03 00:12:51;;;;;;;10.77;9.43;;;14.80;99.90;;;;;;5136641;27;20039;-73
2023/09/03 00:15:25;;;;;;;11.93;9.90;;;14.80;99.90;;;;;;5155128;27;20050;-73
2023/09/03 00:17:51;;;;;;;10.73;9.63;;;14.70;99.90;;;;;;5154877;27;20114;-73
2023/09/03 00:20:17;;;;;;;11.07;9.70;;;14.70;99.90;;;;;;5136714;27;20058;-72
2023/09/03 00:22:42;;;;;;;9.77;8.77;;;14.70;99.90;;;;;;5155016;27;20122;-73
2023/09/03 00:25:09;;;;;;;11.50;10.17;;;14.70;99.90;;;;;;5154572;27;20042;-73
2023/09/03 00:27:34;;;;;;;11.10;9.50;;;14.60;99.90;;;;;;5154908;27;20049;-72
2023/09/03 00:30:00;;;;;;;10.33;9.33;;;14.60;99.90;;;;;;5154520;27;20141;-72
2023/09/03 00:32:26;;;;;;;12.07;9.90;;;14.70;99.90;;;;;;5154632;27;20059;-72
2023/09/03 00:34:51;;;;;;;11.13;10.03;;;14.60;99.90;;;;;;5136178;27;20095;-74
2023/09/03 00:37:17;;;;;;;11.07;9.73;;;14.60;99.90;;;;;;5154874;27;20042;-72
2023/09/03 00:39:43;;;;;;;10.60;9.50;;;14.60;99.90;;;;;;5154676;27;20175;-73
2023/09/03 00:42:09;;;;;;;11.47;10.27;;;14.50;99.90;;;;;;5136073;27;20039;-72
2023/09/03 00:44:34;;;;;;;12.67;11.27;;;14.50;99.90;;;;;;5119213;27;20047;-73
2023/09/03 00:47:01;;;;;;;11.43;10.33;;;14.50;99.90;;;;;;5135725;27;20045;-73
2023/09/03 00:49:28;;;;;;;13.10;9.87;;;14.50;99.90;;;;;;5119486;27;20146;-73
2023/09/03 00:51:55;;;;;;;11.03;9.93;;;14.40;99.90;;;;;;5154530;27;20467;-75
2023/09/03 00:54:22;;;;;;;10.60;9.50;;;14.40;99.90;;;;;;5136016;27;20043;-73
2023/09/03 00:56:49;;;;;;;11.20;10.00;;;14.50;99.90;;;;;;5154567;27;20042;-73
2023/09/03 00:59:18;;;;;;;11.03;8.83;;;14.50;99.90;;;;;;5154275;27;20085;-73
2023/09/03 01:01:44;;;;;;;10.73;8.57;;;14.40;99.90;;;;;;5136510;27;20133;-73
2023/09/03 01:04:10;;;;;;;10.20;9.13;;;14.50;99.90;;;;;;5154103;27;20085;-73
2023/09/03 01:06:36;;;;;;;9.97;8.83;;;14.50;99.90;;;;;;5118799;27;20280;-73
2023/09/03 01:09:02;;;;;;;10.30;8.90;;;14.60;99.90;;;;;;5156422;27;20121;-73
2023/09/03 01:11:55;;;;;;;10.00;8.90;;;14.50;99.90;;;;;;5158582;27;20099;-73
2023/09/03 01:14:33;;;;;;;10.40;8.53;;;14.50;99.90;;;;;;5158484;27;20303;-73
2023/09/03 01:17:12;;;;;;;11.27;9.50;;;14.50;99.90;;;;;;5140136;27;20390;-73
2023/09/03 01:19:54;;;;;;;10.47;8.90;;;14.50;99.90;;;;;;5158205;27;20304;-72
2023/09/03 01:22:28;;;;;;;9.63;8.33;;;14.40;99.90;;;;;;5158199;27;20276;-73
2023/09/03 01:25:19;;;;;;;10.65;9.13;;;14.40;99.90;;;;;;5158576;27;20272;-73
2023/09/03 01:28:03;;;;;;;12.90;7.97;;;14.40;99.90;;;;;;5139813;27;20047;-73
2023/09/03 01:30:29;;;;;;;10.00;9.00;;;14.40;99.90;;;;;;5139290;27;20356;-73
2023/09/03 01:32:56;;;;;;;10.60;9.43;;;14.40;99.90;;;;;;5139879;27;20363;-73
2023/09/03 01:35:22;;;;;;;10.33;9.23;;;14.40;99.90;;;;;;5157875;27;20280;-73
2023/09/03 01:37:48;;;;;;;11.90;9.33;;;14.40;99.90;;;;;;5158128;27;20049;-73
2023/09/03 01:40:14;;;;;;;9.67;8.67;;;14.40;99.90;;;;;;5139234;27;20288;-73
2023/09/03 01:42:40;;;;;;;13.30;8.93;;;14.50;99.90;;;;;;5158013;27;20046;-73
2023/09/03 01:45:06;;;;;;;10.57;9.47;;;14.50;99.90;;;;;;5122274;27;20452;-73
2023/09/03 01:47:42;;;;;;;9.43;8.43;;;14.50;99.90;;;;;;5139625;27;20078;-73
2023/09/03 01:50:33;;;;;;;9.07;8.03;;;14.40;99.90;;;;;;5140389;27;20292;-73
2023/09/03 01:53:06;;;;;;;9.73;8.73;;;14.40;99.90;;;;;;5157925;27;20395;-74
2023/09/03 01:55:38;;;;;;;9.73;8.43;;;14.40;99.90;;;;;;5157852;27;20478;-73
2023/09/03 01:58:07;;;;;;;9.67;8.43;;;14.40;99.90;;;;;;5157581;27;20276;-73
2023/09/03 02:00:34;;;;;;;9.60;8.60;;;14.50;99.90;;;;;;5157923;27;20276;-73
2023/09/03 02:03:01;;;;;;;9.73;8.73;;;14.50;99.90;;;;;;5157264;27;20483;-73
2023/09/03 02:05:27;;;;;;;10.43;9.37;;;14.40;99.90;;;;;;5157290;27;20462;-72
2023/09/03 02:07:52;;;;;;;9.30;8.30;;;14.40;99.90;;;;;;5157452;27;20051;-72
2023/09/03 02:10:18;;;;;;;10.23;8.50;;;14.40;99.90;;;;;;5157138;27;20046;-73
2023/09/03 02:12:44;;;;;;;10.30;8.80;;;14.30;99.90;;;;;;5157342;27;20056;-72
2023/09/03 02:15:10;;;;;;;8.83;7.93;;;14.30;99.90;;;;;;5157119;27;20390;-73
2023/09/03 02:17:35;;;;;;;9.40;8.43;;;14.30;99.90;;;;;;5157374;27;20122;-73
2023/09/03 02:20:01;;;;;;;8.43;7.63;;;14.30;99.90;;;;;;5156662;27;20080;-73
2023/09/03 02:22:28;;;;;;;8.87;7.97;;;14.20;99.90;;;;;;5138300;27;20068;-73
2023/09/03 02:24:53;;;;;;;8.90;7.80;;;14.20;99.90;;;;;;5138897;27;20292;-72
2023/09/03 02:27:19;;;;;;;8.50;7.60;;;14.20;99.90;;;;;;5156881;27;20043;-72
2023/09/03 02:29:45;;;;;;;8.40;7.50;;;14.20;99.90;;;;;;5157000;27;20058;-73
2023/09/03 02:32:11;;;;;;;8.60;7.70;;;14.20;99.90;;;;;;5138212;27;20442;-73
2023/09/03 02:34:37;;;;;;;9.17;7.63;;;14.10;99.90;;;;;;5156901;27;20043;-73
2023/09/03 02:37:03;;;;;;;10.93;8.83;;;14.10;99.90;;;;;;5156917;27;20049;-73
2023/09/03 02:39:29;;;;;;;9.47;8.07;;;14.00;99.90;;;;;;5138357;27;20387;-73
2023/09/03 02:41:54;;;;;;;10.07;8.50;;;14.00;99.90;;;;;;5138412;27;20287;-73
2023/09/03 02:44:20;;;;;;;9.90;8.80;;;13.90;99.90;;;;;;5156443;27;20050;-73
2023/09/03 02:46:46;;;;;;;8.87;7.97;;;13.90;99.90;;;;;;5156833;27;20368;-72
2023/09/03 02:49:11;;;;;;;8.37;7.53;;;13.90;99.90;;;;;;5156570;27;20035;-73
2023/09/03 02:51:38;;;;;;;8.67;7.77;;;13.90;99.90;;;;;;5138448;27;20478;-73
2023/09/03 02:54:03;;;;;;;8.73;7.50;;;13.90;99.90;;;;;;5156590;27;20440;-73
2023/09/03 02:56:30;;;;;;;9.47;8.17;;;13.90;99.90;;;;;;5137984;27;20280;-73
2023/09/03 02:58:56;;;;;;;8.37;7.53;;;13.90;99.90;;;;;;5121326;27;20042;-73
2023/09/03 03:01:22;;;;;;;8.77;7.87;;;13.80;99.90;;;;;;5137896;27;20795;-73
2023/09/03 03:03:48;;;;;;;10.23;9.13;;;13.90;99.90;;;;;;5138222;27;20039;-72
2023/09/03 03:06:15;;;;;;;10.90;8.47;;;13.80;99.90;;;;;;5156149;27;20363;-72
2023/09/03 03:08:41;;;;;;;9.97;8.83;;;13.80;99.90;;;;;;5156500;27;20280;-72
2023/09/03 03:11:12;;;;;;;10.63;8.47;;;13.80;99.90;;;;;;5156222;27;20280;-72
2023/09/03 03:13:39;;;;;;;8.40;7.27;;;13.80;99.90;;;;;;5138500;27;20333;-72
2023/09/03 03:16:07;;;;;;;10.40;8.50;;;13.70;99.90;;;;;;5138130;27;20288;-72
2023/09/03 03:18:35;;;;;;;10.47;7.40;;;13.70;99.90;;;;;;5137719;27;20788;-72
2023/09/03 03:21:15;;;;;;;10.33;7.90;;;13.70;99.90;;;;;;5156312;27;20298;-72
2023/09/03 03:23:41;;;;;;;9.83;7.90;;;13.70;99.90;;;;;;5137572;27;20287;-72
2023/09/03 03:26:07;;;;;;;11.73;9.87;;;13.70;99.90;;;;;;5137707;27;20334;-72
2023/09/03 03:28:34;;;;;;;19.93;11.33;;;13.70;99.90;;;;;;5155712;27;20332;-72
2023/09/03 03:31:14;;;;;;;11.30;10.10;;;13.70;99.90;;;;;;5155792;27;20291;-72
2023/09/03 03:33:41;;;;;;;14.10;11.13;;;13.60;99.90;;;;;;5137254;27;20306;-72
2023/09/03 03:36:07;;;;;;;12.27;10.43;;;13.60;99.90;;;;;;5155900;27;20274;-72
2023/09/03 03:38:34;;;;;;;12.60;10.53;;;13.60;99.90;;;;;;5137233;27;21187;-72
2023/09/03 03:41:13;;;;;;;12.20;9.80;;;13.60;99.90;;;;;;5155676;27;20280;-72
2023/09/03 03:43:44;;;;;;;11.17;10.07;;;13.60;99.90;;;;;;5155401;27;20264;-73
2023/09/03 03:46:14;;;;;;;11.50;9.90;;;13.50;99.90;;;;;;5137337;27;20351;-72
2023/09/03 03:48:39;;;;;;;11.00;9.70;;;13.50;99.90;;;;;;5136989;27;20287;-72
2023/09/03 03:51:05;;;;;;;12.13;9.43;;;13.50;99.90;;;;;;5155557;27;20272;-72
2023/09/03 03:53:31;;;;;;;10.93;8.57;;;13.50;99.90;;;;;;5155073;27;20043;-72
2023/09/03 03:56:15;;;;;;;9.83;8.37;;;13.50;99.90;;;;;;5155372;27;20517;-73
2023/09/03 03:58:42;;;;;;;8.63;7.73;;;13.50;99.90;;;;;;5136827;27;20047;-73
2023/09/03 04:01:15;;;;;;;9.37;8.37;;;13.50;99.90;;;;;;5137073;27;20376;-73
2023/09/03 04:03:42;;;;;;;9.23;7.20;;;13.60;99.90;;;;;;5136705;27;20292;-73
2023/09/03 04:06:08;;;;;;;8.40;7.00;;;13.60;99.90;;;;;;5136863;27;20284;-73
2023/09/03 04:08:35;;;;;;;9.53;7.37;;;13.60;99.90;;;;;;5136378;27;20286;-74
2023/09/03 04:11:06;;;;;;;9.00;7.73;;;13.60;99.90;;;;;;5155127;27;20043;-74
2023/09/03 04:13:32;;;;;;;9.33;7.23;;;13.50;99.90;;;;;;5154819;27;20300;-74
2023/09/03 04:15:59;;;;;;;9.07;7.70;;;13.50;99.90;;;;;;5136799;27;20284;-74
2023/09/03 04:18:27;;;;;;;8.33;7.10;;;13.50;99.90;;;;;;5136348;27;20360;-73
2023/09/03 04:20:53;;;;;;;7.70;6.90;;;13.50;99.90;;;;;;5155168;27;20601;-73
2023/09/03 04:23:19;;;;;;;7.30;6.43;;;13.50;99.90;;;;;;5155099;27;20268;-72
2023/09/03 04:25:45;;;;;;;9.10;7.53;;;13.40;99.90;;;;;;5154857;27;20362;-73
2023/09/03 04:28:10;;;;;;;9.30;6.53;;;13.40;99.90;;;;;;5154828;27;20363;-73
2023/09/03 04:30:38;;;;;;;6.93;6.20;;;13.50;99.90;;;;;;5135324;27;20138;-73
2023/09/03 04:33:06;;;;;;;7.43;6.53;;;13.50;99.90;;;;;;5136411;27;20129;-73
2023/09/03 04:35:32;;;;;;;7.67;6.70;;;13.50;99.90;;;;;;5136261;27;20284;-73
2023/09/03 04:37:58;;;;;;;7.77;6.60;;;13.50;99.90;;;;;;5154786;27;20286;-73
2023/09/03 04:40:24;;;;;;;8.77;7.17;;;13.50;99.90;;;;;;5154459;27;20363;-73
2023/09/03 04:42:49;;;;;;;7.47;6.30;;;13.50;99.90;;;;;;5136080;27;20046;-73
2023/09/03 04:45:16;;;;;;;7.07;5.70;;;13.50;99.90;;;;;;5119285;27;20333;-72
2023/09/03 04:47:43;;;;;;;6.60;5.90;;;13.50;99.90;;;;;;5136168;27;20047;-73
2023/09/03 04:50:09;;;;;;;7.07;5.80;;;13.50;99.90;;;;;;5154592;27;20286;-73
2023/09/03 04:52:36;;;;;;;7.20;5.90;;;13.50;99.90;;;;;;5154279;27;20284;-73
2023/09/03 04:55:01;;;;;;;6.90;6.03;;;13.50;99.90;;;;;;5119160;27;20296;-73
2023/09/03 04:57:28;;;;;;;7.63;5.63;;;13.50;99.90;;;;;;5135824;27;20288;-73
2023/09/03 04:59:53;;;;;;;8.37;5.60;;;13.50;99.90;;;;;;5154597;27;20367;-73
2023/09/03 05:02:19;;;;;;;5.77;4.97;;;13.60;99.90;;;;;;5154492;27;20283;-73
2023/09/03 05:04:45;;;;;;;7.03;5.67;;;13.60;99.90;;;;;;5136029;27;20478;-73
2023/09/03 05:07:10;;;;;;;5.80;5.03;;;13.60;99.90;;;;;;5154538;27;20047;-73
2023/09/03 05:09:37;;;;;;;7.83;5.07;;;13.60;99.90;;;;;;5154130;27;20086;-73
2023/09/03 05:12:03;;;;;;;5.57;4.83;;;13.60;99.90;;;;;;5136202;27;20161;-73
2023/09/03 05:14:29;;;;;;;6.50;5.30;;;13.70;99.90;;;;;;5154043;27;20450;-73
2023/09/03 05:16:54;;;;;;;7.93;5.50;;;13.70;99.90;;;;;;5135953;27;20428;-73
2023/09/03 05:19:20;;;;;;;5.73;5.10;;;13.70;99.90;;;;;;5154343;27;20474;-73
2023/09/03 05:21:46;;;;;;;6.67;5.93;;;13.70;99.90;;;;;;5154095;27;20086;-73
2023/09/03 05:24:11;;;;;;;6.80;5.60;;;13.80;99.90;;;;;;5136073;27;20046;-73
2023/09/03 05:26:37;;;;;;;6.57;5.90;;;13.80;99.90;;;;;;5135599;27;20138;-73
2023/09/03 05:29:03;;;;;;;7.17;5.60;;;13.80;99.90;;;;;;5136278;27;20050;-73
2023/09/03 05:31:30;;;;;;;6.70;5.67;;;13.80;99.90;;;;;;5153643;27;20061;-74
2023/09/03 05:34:00;;;;;;;7.13;5.50;;;13.90;99.90;;;;;;5135908;27;20051;-73
2023/09/03 05:36:26;;;;;;;7.27;5.70;;;13.90;99.90;;;;;;5136168;27;20287;-73
2023/09/03 05:38:52;;;;;;;7.20;5.20;;;13.90;99.90;;;;;;5118666;27;20365;-72
2023/09/03 05:41:18;;;;;;;6.60;5.13;;;14.00;99.90;;;;;;5136041;27;20300;-72
2023/09/03 05:43:44;;;;;;;7.73;5.33;;;14.10;99.90;;;;;;5153823;27;20035;-72
2023/09/03 05:46:09;;;;;;;7.90;6.00;;;14.00;99.90;;;;;;5154203;27;20107;-72
2023/09/03 05:48:35;;;;;;;5.97;4.90;;;14.10;99.90;;;;;;5135648;27;20043;-72
2023/09/03 05:51:05;;;;;;;6.60;5.57;;;14.10;99.90;;;;;;5135461;27;20492;-72
2023/09/03 05:53:32;;;;;;;6.63;5.77;;;14.10;99.90;;;;;;5153795;27;20552;-73
2023/09/03 05:56:12;;;;;;;7.83;5.47;;;14.20;99.90;;;;;;5155819;27;20276;-72
2023/09/03 05:58:38;;;;;;;6.57;5.33;;;14.30;99.90;;;;;;5157561;27;20275;-72
2023/09/03 06:01:10;;;;;;;6.10;5.50;;;14.40;99.90;;;;;;5157802;27;20632;-72
2023/09/03 06:03:37;;;;;;;6.80;5.97;;;14.40;99.90;;;;;;5157570;27;20272;-72
2023/09/03 06:06:03;;;;;;;7.07;5.70;;;14.40;99.90;;;;;;5157814;27;20284;-72
2023/09/03 06:08:30;;;;;;;7.27;6.00;;;14.50;99.90;;;;;;5157584;27;20288;-72
2023/09/03 06:10:56;;;;;;;7.27;6.33;;;14.60;99.90;;;;;;5157207;27;20293;-73
2023/09/03 06:13:23;;;;;;;7.37;5.40;;;14.70;99.90;;;;;;5139282;27;20403;-73
2023/09/03 06:15:50;;;;;;;8.10;5.57;;;14.80;99.90;;;;;;5138904;27;20047;-73
2023/09/03 06:18:16;;;;;;;6.37;5.40;;;15.00;99.90;;;;;;5139246;27;20609;-73
2023/09/03 06:20:41;;;;;;;7.20;5.40;;;15.20;99.90;;;;;;5138756;27;20078;-73
2023/09/03 06:23:08;;;;;;;6.47;5.10;;;15.60;99.90;;;;;;5157220;27;20078;-73
2023/09/03 06:25:35;;;;;;;6.87;5.60;;;15.90;99.90;;;;;;5138915;27;20447;-75
2023/09/03 06:28:01;;;;;;;8.90;4.90;;;16.50;99.90;;;;;;5138996;27;20050;-73
2023/09/03 06:30:27;;;;;;;6.00;4.80;;;17.00;99.90;;;;;;5138468;27;20087;-73
2023/09/03 06:32:52;;;;;;;6.23;5.23;;;17.40;99.90;;;;;;5138485;27;20054;-74
2023/09/03 06:35:18;;;;;;;5.60;4.63;;;18.00;99.90;;;;;;5157022;27;20443;-74
2023/09/03 06:37:44;;;;;;;6.33;4.40;;;18.50;99.90;;;;;;5121308;27;20043;-74
2023/09/03 06:40:13;;;;;;;5.80;4.23;;;18.80;99.90;;;;;;5157146;27;20082;-73
2023/09/03 06:42:39;;;;;;;5.33;4.53;;;19.30;99.90;;;;;;5156410;27;20486;-74
2023/09/03 06:45:05;;;;;;;5.40;3.93;;;19.70;99.90;;;;;;5156834;27;20053;-75
2023/09/03 06:47:31;;;;;;;5.60;4.33;;;19.80;99.90;;;;;;5138516;27;20047;-75
2023/09/03 06:49:57;;;;;;;6.63;4.30;;;19.80;99.90;;;;;;5156441;27;20047;-74
2023/09/03 06:52:23;;;;;;;6.20;4.20;;;20.20;99.90;;;;;;5156576;27;20137;-74
2023/09/03 06:54:49;;;;;;;6.33;4.60;;;20.90;99.90;;;;;;5137938;27;20493;-74
2023/09/03 06:57:16;;;;;;;4.57;3.67;;;21.60;99.90;;;;;;5138267;27;20068;-74
2023/09/03 06:59:42;;;;;;;4.87;3.60;;;22.00;99.90;;;;;;5137808;27;20043;-77
2023/09/03 07:02:08;;;;;;;4.60;3.50;;;22.10;99.90;;;;;;5156548;27;20085;-77
2023/09/03 07:04:35;;;;;;;4.90;3.13;;;22.60;99.90;;;;;;5156601;27;20042;-78
2023/09/03 07:07:05;;;;;;;5.20;3.40;;;23.50;99.90;;;;;;5155780;27;20077;-78
2023/09/03 07:09:32;;;;;;;4.80;3.33;;;24.50;99.90;;;;;;5156381;27;20486;-78
2023/09/03 07:12:02;;;;;;;4.83;3.33;;;25.20;99.90;;;;;;5137856;27;20061;-78
2023/09/03 07:14:35;;;;;;;4.60;3.10;;;26.00;99.90;;;;;;5156610;27;20045;-78
2023/09/03 07:17:01;;;;;;;4.37;2.40;;;26.70;95.50;;;;;;5137841;27;20142;-78
2023/09/03 07:19:28;;;;;;;4.40;2.40;;;27.40;99.90;;;;;;5139684;27;20106;-79
2023/09/03 07:21:54;;;;;;;4.60;2.50;;;27.90;97.30;;;;;;5137739;27;20054;-80
2023/09/03 07:24:20;;;;;;;4.33;2.40;;;28.60;94.30;;;;;;5156164;27;20057;-80
2023/09/03 07:26:46;;;;;;;3.67;2.27;;;28.80;89.80;;;;;;5156001;27;20039;-79
2023/09/03 07:29:13;;;;;;;5.67;2.37;;;29.10;81.90;;;;;;5156084;27;20042;-79
2023/09/03 07:31:43;;;;;;;4.13;2.30;;;29.30;74.30;;;;;;5137282;27;20061;-78
2023/09/03 07:34:10;;;;;;;3.92;2.60;;;29.60;70.60;;;;;;5137467;27;20043;-78
2023/09/03 07:36:36;;;;;;;3.72;2.25;;;29.80;66.50;;;;;;5137480;27;20078;-79
2023/09/03 07:39:03;;;;;;;4.82;2.50;;;30.00;63.80;;;;;;5136831;27;20062;-78
2023/09/03 07:41:30;;;;;;;3.90;2.92;;;29.90;62.20;;;;;;5155679;27;20039;-78
2023/09/03 07:43:56;;;;;;;3.97;2.53;;;29.40;61.60;;;;;;5155390;27;20038;-78
2023/09/03 07:46:22;;;;;;;5.65;2.92;;;28.90;63.10;;;;;;5137370;27;20046;-79
2023/09/03 07:48:47;;;;;;;5.93;2.65;;;28.70;65.00;;;;;;5119759;27;20050;-78
2023/09/03 07:51:15;;;;;;;6.43;2.80;;;28.40;66.50;;;;;;5137287;27;20038;-77
2023/09/03 07:53:41;;;;;;;4.95;3.08;;;28.10;69.30;;;;;;5155434;27;20082;-77
2023/09/03 07:56:06;;;;;;;4.47;2.63;;;27.60;71.90;;;;;;5136873;27;20142;-78
2023/09/03 07:58:32;;;;;;;5.38;2.67;;;27.00;77.00;;;;;;5155336;27;20125;-77
2023/09/03 08:00:58;;;;;;;6.32;3.13;;;26.50;85.40;;;;;;5155075;27;20088;-78
2023/09/03 08:03:35;;;;;;;6.35;2.83;;;26.00;89.40;;;;;;5155421;27;20121;-78
2023/09/03 08:06:02;;;;;;;6.60;3.00;;;25.40;93.30;;;;;;5155052;27;20049;-78
2023/09/03 08:08:28;;;;;;;4.37;2.43;;;25.00;94.60;;;;;;5136658;27;20041;-78
2023/09/03 08:10:57;;;;;;;6.23;3.33;;;24.60;96.10;;;;;;5154612;27;20563;-78
2023/09/03 08:13:23;;;;;;;4.87;2.53;;;24.20;98.80;;;;;;5155042;27;20466;-78
2023/09/03 08:15:49;;;;;;;4.87;2.97;;;23.90;99.60;;;;;;5154882;27;20080;-79
2023/09/03 08:18:15;;;;;;;5.57;2.53;;;23.80;99.30;;;;;;5154508;27;20043;-78
2023/09/03 08:20:41;;;;;;;5.40;2.50;;;23.70;99.30;;;;;;5154775;27;20399;-77
2023/09/03 08:23:12;;;;;;;4.97;2.73;;;23.50;99.90;;;;;;5137000;27;20034;-77
2023/09/03 08:25:38;;;;;;;6.17;3.00;;;23.40;99.90;;;;;;5136614;27;20110;-78
2023/09/03 08:28:04;;;;;;;6.10;2.40;;;23.20;99.90;;;;;;5154682;27;20046;-78
2023/09/03 08:30:32;;;;;;;6.17;2.90;;;23.10;99.90;;;;;;5136535;27;20087;-78
2023/09/03 08:32:58;;;;;;;5.83;2.97;;;23.00;99.90;;;;;;5135703;27;20513;-76
2023/09/03 08:35:24;;;;;;;4.80;2.73;;;22.90;99.90;;;;;;5154964;27;20039;-78
2023/09/03 08:37:50;;;;;;;5.93;3.60;;;22.80;99.90;;;;;;5119388;27;20049;-76
2023/09/03 08:40:18;;;;;;;7.77;3.90;;;22.60;99.90;;;;;;5137023;27;20053;-75
2023/09/03 08:42:47;;;;;;;6.00;3.80;;;22.50;99.90;;;;;;5154458;27;20520;-75
2023/09/03 08:45:15;;;;;;;5.20;3.27;;;22.40;99.90;;;;;;5135953;27;20579;-75
2023/09/03 08:47:44;;;;;;;6.03;3.57;;;22.30;99.90;;;;;;5154381;27;20479;-76
2023/09/03 08:50:11;;;;;;;9.93;3.90;;;22.20;99.90;;;;;;5136178;27;20099;-75
2023/09/03 08:52:38;;;;;;;5.07;3.63;;;22.20;99.90;;;;;;5154670;27;20115;-76
2023/09/03 08:55:05;;;;;;;6.47;3.83;;;22.10;99.90;;;;;;5154396;27;20478;-76
2023/09/03 08:57:34;;;;;;;7.43;3.63;;;22.10;99.90;;;;;;5154334;27;20481;-75
2023/09/03 09:00:05;;;;;;;5.93;3.70;;;22.10;99.90;;;;;;5135985;27;20050;-78
2023/09/03 09:02:32;;;;;;;6.97;3.60;;;22.00;99.90;;;;;;5136558;27;20415;-77
2023/09/03 09:04:59;;;;;;;4.57;2.87;;;22.10;99.90;;;;;;5118720;27;20091;-78
2023/09/03 09:07:25;;;;;;;6.70;3.37;;;22.10;99.90;;;;;;5154631;27;20114;-77
2023/09/03 09:09:52;;;;;;;7.40;3.20;;;22.10;99.90;;;;;;5119225;27;20050;-77
2023/09/03 09:12:24;;;;;;;6.27;2.97;;;22.10;99.90;;;;;;5154275;27;20034;-77
2023/09/03 09:15:00;;;;;;;7.53;3.37;;;22.20;99.90;;;;;;5154582;27;20099;-77
2023/09/03 09:17:28;;;;;;;6.20;3.37;;;22.10;99.90;;;;;;5122754;27;20043;-77
2023/09/03 09:19:59;;;;;;;6.17;3.17;;;22.20;99.90;;;;;;5136282;27;20045;-77
2023/09/03 09:22:25;;;;;;;6.03;2.70;;;22.10;99.90;;;;;;5154619;27;20043;-77
2023/09/03 09:24:51;;;;;;;5.17;2.83;;;22.10;99.90;;;;;;5119059;27;20042;-77
2023/09/03 09:27:19;;;;;;;4.97;2.70;;;22.10;99.90;;;;;;5135840;27;20057;-77
2023/09/03 09:29:46;;;;;;;5.40;2.80;;;22.10;99.90;;;;;;5156187;27;20076;-77
2023/09/03 09:32:24;;;;;;;5.77;2.87;;;22.20;99.90;;;;;;5157527;27;20051;-77
2023/09/03 09:34:50;;;;;;;4.93;2.90;;;22.20;99.90;;;;;;5158186;27;20043;-77
2023/09/03 09:37:16;;;;;;;7.70;3.80;;;22.20;99.90;;;;;;5139377;27;20061;-76
2023/09/03 09:39:43;;;;;;;5.77;2.93;;;22.10;99.90;;;;;;5139912;27;20050;-76
2023/09/03 09:42:11;;;;;;;5.80;2.90;;;22.10;99.90;;;;;;5139689;27;20058;-76
2023/09/03 09:44:37;;;;;;;5.27;3.20;;;22.10;99.90;;;;;;5139580;27;20035;-75
2023/09/03 09:47:30;;;;;;;5.37;2.90;;;22.10;99.90;;;;;;5122223;27;20099;-75
2023/09/03 09:49:56;;;;;;;7.20;3.40;;;22.10;99.90;;;;;;5136056;27;20158;-76
2023/09/03 09:52:22;;;;;;;7.90;3.50;;;22.10;99.90;;;;;;5139315;27;20121;-76
2023/09/03 09:54:49;;;;;;;5.00;3.50;;;22.10;99.90;;;;;;5105297;27;20082;-76
2023/09/03 09:57:16;;;;;;;5.63;3.10;;;22.10;99.90;;;;;;5138814;27;20443;-76
2023/09/03 09:59:43;;;;;;;4.30;2.67;;;22.00;99.90;;;;;;5139630;27;20517;-76
2023/09/03 10:02:15;;;;;;;5.93;3.20;;;21.80;99.90;;;;;;5157543;27;20054;-69
2023/09/03 10:04:44;;;;;;;5.33;3.10;;;21.80;99.90;;;;;;5157612;27;20099;-76
2023/09/03 10:07:10;;;;;;;5.33;2.60;;;21.80;99.90;;;;;;5139116;27;20478;-76
2023/09/03 10:09:38;;;;;;;4.40;2.53;;;21.80;99.90;;;;;;5139296;27;20050;-78
2023/09/03 10:12:05;;;;;;;5.13;2.50;;;21.70;99.90;;;;;;5157334;27;20046;-77
2023/09/03 10:14:31;;;;;;;4.50;2.33;;;21.70;99.90;;;;;;5122180;27;20046;-76
2023/09/03 10:17:02;;;;;;;4.23;2.10;;;21.70;99.90;;;;;;5121757;27;20086;-76
2023/09/03 10:19:39;;;;;;;5.37;2.40;;;21.70;99.90;;;;;;5157758;27;20045;-76
2023/09/03 10:22:06;;;;;;;4.87;2.70;;;21.70;99.90;;;;;;5139984;27;20054;-77
2023/09/03 10:24:34;;;;;;;7.47;2.80;;;21.60;99.90;;;;;;5157462;27;20042;-76
2023/09/03 10:27:04;;;;;;;4.23;2.10;;;21.60;99.90;;;;;;5139188;27;20099;-76
2023/09/03 10:29:32;;;;;;;4.93;2.23;;;21.50;99.90;;;;;;5157254;27;20043;-76
2023/09/03 10:32:03;;;;;;;6.37;2.50;;;21.50;99.90;;;;;;5138658;27;20050;-70
2023/09/03 10:34:30;;;;;;;4.07;2.00;;;21.50;99.90;;;;;;5156973;27;20051;-77
2023/09/03 10:37:03;;;;;;;4.47;2.10;;;21.50;99.90;;;;;;5138690;27;20099;-78
2023/09/03 10:39:29;;;;;;;4.47;2.40;;;21.50;99.90;;;;;;5138516;27;20054;-75
2023/09/03 10:42:27;;;;;;;3.20;1.80;;;21.40;99.90;;;;;;5137962;27;20503;-77
2023/09/03 10:45:02;;;;;;;5.10;2.13;;;21.40;99.90;;;;;;5157059;27;20087;-78
2023/09/03 10:47:28;;;;;;;5.50;1.90;;;21.40;99.90;;;;;;5156692;27;20043;-78
2023/09/03 10:49:55;;;;;;;3.83;1.90;;;21.40;99.90;;;;;;5138455;27;20057;-77
2023/09/03 10:52:27;;;;;;;4.43;1.70;;;21.40;99.90;;;;;;5156588;27;20050;-77
2023/09/03 10:55:22;;;;;;;6.13;2.50;;;21.30;99.90;;;;;;5138329;27;20131;-78
2023/09/03 10:58:11;;;;;;;4.68;2.17;;;21.30;99.90;;;;;;5134526;27;20046;-77
2023/09/03 11:00:37;;;;;;;4.10;2.10;;;21.30;99.90;;;;;;5137911;27;20486;-77
2023/09/03 11:03:45;;;;;;;5.83;2.03;;;21.30;99.90;;;;;;5156559;27;20126;-75
2023/09/03 11:06:25;;;;;;;4.40;2.00;;;21.30;99.90;;;;;;5125703;27;20070;-75
2023/09/03 11:09:06;;;;;;;5.47;2.23;;;21.30;99.90;;;;;;5156197;27;20500;-74
2023/09/03 11:11:33;;;;;;;4.83;2.07;;;21.30;99.90;;;;;;5156190;27;20050;-75
2023/09/03 11:14:00;;;;;;;3.67;1.93;;;21.40;99.90;;;;;;5137960;27;20064;-76
2023/09/03 11:16:30;;;;;;;4.20;1.90;;;21.40;99.90;;;;;;5138074;27;20416;-75
2023/09/03 11:18:57;;;;;;;4.07;1.80;;;21.30;99.90;;;;;;5138033;27;20047;-75
2023/09/03 11:21:24;;;;;;;4.17;1.80;;;21.30;99.90;;;;;;5137559;27;20119;-75
2023/09/03 11:24:05;;;;;;;5.10;2.50;;;21.30;99.90;;;;;;5156185;27;20043;-76
2023/09/03 11:26:32;;;;;;;3.60;1.60;;;21.30;99.90;;;;;;5155881;27;20062;-76
2023/09/03 11:28:59;;;;;;;4.43;2.00;;;21.30;99.90;;;;;;5156055;27;20049;-76
2023/09/03 11:31:25;;;;;;;5.40;2.40;;;21.30;99.90;;;;;;5155129;27;20066;-75
2023/09/03 11:33:51;;;;;;;5.47;2.70;;;21.30;99.90;;;;;;5155878;27;20038;-75
2023/09/03 11:36:24;;;;;;;5.20;2.40;;;21.30;99.90;;;;;;5155662;27;20106;-75
2023/09/03 11:38:55;;;;;;;5.43;2.33;;;21.30;99.90;;;;;;5155966;27;20125;-75
2023/09/03 11:41:21;;;;;;;6.43;2.63;;;21.20;99.90;;;;;;5155309;27;20047;-76
2023/09/03 11:43:47;;;;;;;4.90;2.00;;;21.20;99.90;;;;;;5155702;27;20106;-75
2023/09/03 11:46:17;;;;;;;3.90;2.23;;;21.30;99.90;;;;;;5155677;27;20075;-75
2023/09/03 11:48:51;;;;;;;4.90;1.90;;;21.30;99.90;;;;;;5155894;27;20046;-75
2023/09/03 11:51:27;;;;;;;5.03;2.40;;;21.30;99.90;;;;;;5136898;27;20047;-75
2023/09/03 11:53:53;;;;;;;4.10;1.93;;;21.30;99.90;;;;;;5154712;27;20047;-75
2023/09/03 11:56:22;;;;;;;4.33;2.00;;;21.40;99.90;;;;;;5155054;27;20073;-75
2023/09/03 11:58:55;;;;;;;4.67;2.40;;;21.30;99.90;;;;;;5155675;27;20049;-72
2023/09/03 12:01:21;;;;;;;5.83;2.07;;;21.30;99.90;;;;;;5155369;27;20139;-77
2023/09/03 12:03:47;;;;;;;4.33;2.20;;;21.30;99.90;;;;;;5137453;27;20528;-82
2023/09/03 12:06:13;;;;;;;4.63;2.27;;;21.30;99.90;;;;;;5155530;27;20096;-82
2023/09/03 12:08:38;;;;;;;4.47;2.03;;;21.20;99.90;;;;;;5119957;27;20074;-82
2023/09/03 12:11:05;;;;;;;4.63;1.70;;;21.20;99.90;;;;;;5103206;27;20050;-81
2023/09/03 12:13:33;;;;;;;4.33;1.73;;;21.20;99.90;;;;;;5119612;27;20117;-82
2023/09/03 12:16:07;;;;;;;4.17;1.83;;;21.20;99.90;;;;;;5119789;27;20054;-81
2023/09/03 12:18:33;;;;;;;;;;;21.10;99.90;;;;;;5137211;27;20034;-82
2023/09/03 12:20:59;;;;;;;3.10;1.70;;;21.10;99.90;;;;;;5155425;27;19919;-81
2023/09/03 12:23:26;;;;;;;5.57;1.60;;;21.10;99.90;;;;;;5119265;27;20049;-82
2023/09/03 12:25:52;;;;;;;3.40;1.57;;;21.20;99.90;;;;;;5136768;27;20050;-81
2023/09/03 12:28:17;;;;;;;4.03;1.83;;;21.20;99.90;;;;;;5136666;27;20043;-81
2023/09/03 12:31:12;;;;;;;3.70;1.40;;;21.20;99.90;;;;;;5119137;27;20095;-82
2023/09/03 12:33:49;;;;;;;4.07;2.13;;;21.30;99.90;;;;;;5132776;27;20046;-82
2023/09/03 12:36:17;;;;;;;4.17;1.60;;;21.30;99.90;;;;;;5136939;27;20061;-82
2023/09/03 12:38:51;;;;;;;3.47;1.30;;;21.30;99.90;;;;;;5154873;27;20049;-81
2023/09/03 12:41:17;;;;;;;4.57;1.45;;;21.40;99.90;;;;;;5136639;27;20140;-81
2023/09/03 12:43:43;;;;;;;4.87;1.53;;;21.40;99.90;;;;;;5119388;27;20051;-83
2023/09/03 12:46:10;;;;;;;4.37;1.77;;;21.50;99.90;;;;;;5136552;27;20364;-81
2023/09/03 12:48:36;;;;;;;3.43;1.67;;;21.60;99.90;;;;;;5119458;27;20138;-81
2023/09/03 12:51:02;;;;;;;3.90;1.57;;;21.70;99.90;;;;;;5119461;27;20224;-83